Time;durP1;ratioP1;P1;durP2;ratioP2;P2;SDS_P1;SDS_P2;PMS_P1;PMS_P2;Temp;Humidity;BMP_temperature;BMP_pressure;BME280_temperature;BME280_humidity;BME280_pressure;Samples;Min_cycle;Max_cycle;Signal;HPM_P1;HPM_P2
2023/05/03 00:02:04;;;;;;;2.65;1.90;;;14.90;99.90;;;;;;5114618;28;20020;-70
2023/05/03 00:04:30;;;;;;;4.55;1.80;;;14.80;99.90;;;;;;5114750;28;20034;-70
2023/05/03 00:06:56;;;;;;;4.00;1.80;;;14.80;99.90;;;;;;5114887;28;20446;-70
2023/05/03 00:09:22;;;;;;;5.43;2.00;;;14.90;99.90;;;;;;5114905;28;20400;-70
2023/05/03 00:11:48;;;;;;;3.53;1.80;;;14.90;99.90;;;;;;5114033;28;20044;-70
2023/05/03 00:14:14;;;;;;;5.47;2.05;;;14.80;99.90;;;;;;5114637;28;20404;-70
2023/05/03 00:16:40;;;;;;;2.57;1.87;;;14.80;99.90;;;;;;5114974;28;20027;-70
2023/05/03 00:19:06;;;;;;;4.78;2.10;;;14.80;99.90;;;;;;5114596;28;20519;-70
2023/05/03 00:21:32;;;;;;;3.38;1.80;;;14.70;99.90;;;;;;5114081;28;20031;-69
2023/05/03 00:23:58;;;;;;;4.28;2.00;;;14.70;99.90;;;;;;5114106;28;20024;-70
2023/05/03 00:26:25;;;;;;;4.57;2.17;;;14.70;99.90;;;;;;5114119;28;20102;-70
2023/05/03 00:28:51;;;;;;;2.28;1.80;;;14.70;99.90;;;;;;5114501;28;20024;-71
2023/05/03 00:31:17;;;;;;;2.97;1.77;;;14.60;99.90;;;;;;5114523;28;20027;-70
2023/05/03 00:33:42;;;;;;;5.93;2.05;;;14.70;99.90;;;;;;5114562;28;20064;-70
2023/05/03 00:36:12;;;;;;;3.35;2.05;;;14.70;99.90;;;;;;5114811;28;20434;-70
2023/05/03 00:38:39;;;;;;;2.97;2.00;;;14.60;99.90;;;;;;5113963;28;20039;-70
2023/05/03 00:41:05;;;;;;;4.18;2.00;;;14.60;99.90;;;;;;5114269;28;20024;-71
2023/05/03 00:43:31;;;;;;;3.35;1.88;;;14.60;99.90;;;;;;5114042;28;20468;-71
2023/05/03 00:45:58;;;;;;;4.60;1.80;;;14.60;99.90;;;;;;5114553;28;20016;-70
2023/05/03 00:48:25;;;;;;;2.83;1.67;;;14.60;99.90;;;;;;5114150;28;20059;-70
2023/05/03 00:50:52;;;;;;;3.10;1.80;;;14.60;99.90;;;;;;5114131;28;20012;-70
2023/05/03 00:53:18;;;;;;;2.88;1.90;;;14.60;99.90;;;;;;5114426;28;20100;-70
2023/05/03 00:55:44;;;;;;;3.45;1.65;;;14.60;99.90;;;;;;5113717;28;20104;-70
2023/05/03 00:58:10;;;;;;;2.20;1.83;;;14.60;99.90;;;;;;5113860;28;20071;-70
2023/05/03 01:00:36;;;;;;;3.67;1.80;;;14.50;99.90;;;;;;5114057;28;20036;-70
2023/05/03 01:03:02;;;;;;;2.78;1.95;;;14.50;99.90;;;;;;5095687;28;20404;-70
2023/05/03 01:05:37;;;;;;;3.42;1.90;;;14.60;99.90;;;;;;5113732;28;20024;-70
2023/05/03 01:08:13;;;;;;;2.55;1.90;;;14.50;99.90;;;;;;5113346;28;20024;-70
2023/05/03 01:10:50;;;;;;;3.25;1.98;;;14.50;99.90;;;;;;5113666;28;20081;-71
2023/05/03 01:13:30;;;;;;;2.90;1.80;;;14.50;99.90;;;;;;5113653;28;20056;-70
2023/05/03 01:16:08;;;;;;;3.15;1.85;;;14.50;99.90;;;;;;5113905;28;20027;-70
2023/05/03 01:18:43;;;;;;;2.40;1.75;;;14.50;99.90;;;;;;5113882;28;20108;-70
2023/05/03 01:21:12;;;;;;;2.47;1.70;;;14.50;99.90;;;;;;5113107;28;20012;-70
2023/05/03 01:23:59;;;;;;;3.45;1.70;;;14.50;99.90;;;;;;5113036;28;20393;-70
2023/05/03 01:26:26;;;;;;;3.85;1.65;;;14.50;99.90;;;;;;5113426;28;20031;-71
2023/05/03 01:28:52;;;;;;;2.90;1.77;;;14.50;99.90;;;;;;5113380;28;20050;-70
2023/05/03 01:31:37;;;;;;;4.05;1.73;;;14.50;99.90;;;;;;5113476;28;20098;-71
2023/05/03 01:34:27;;;;;;;2.33;1.70;;;14.50;99.90;;;;;;5113755;28;20034;-71
2023/05/03 01:36:57;;;;;;;2.25;1.70;;;14.50;99.90;;;;;;5113079;28;20020;-69
2023/05/03 01:39:36;;;;;;;3.20;1.70;;;14.50;99.90;;;;;;5113217;28;20105;-70
2023/05/03 01:42:03;;;;;;;3.08;1.88;;;14.50;99.90;;;;;;5113243;28;20035;-70
2023/05/03 01:44:30;;;;;;;3.67;1.88;;;14.50;99.90;;;;;;5113179;28;20140;-70
2023/05/03 01:46:56;;;;;;;3.72;1.73;;;14.50;99.90;;;;;;5112948;28;20028;-70
2023/05/03 01:49:22;;;;;;;2.20;1.70;;;14.50;99.90;;;;;;5113004;28;20035;-71
2023/05/03 01:51:48;;;;;;;4.05;1.85;;;14.50;99.90;;;;;;5112872;28;20031;-69
2023/05/03 01:54:13;;;;;;;2.63;1.90;;;14.50;99.90;;;;;;5112966;28;20542;-69
2023/05/03 01:56:40;;;;;;;2.00;1.60;;;14.50;99.90;;;;;;5112917;28;20438;-70
2023/05/03 01:59:05;;;;;;;2.97;1.73;;;14.40;99.90;;;;;;5112790;28;20080;-70
2023/05/03 02:01:31;;;;;;;3.03;1.70;;;14.40;99.90;;;;;;5112665;28;20024;-70
2023/05/03 02:03:57;;;;;;;3.35;1.90;;;14.40;99.90;;;;;;5112608;28;20032;-70
2023/05/03 02:06:24;;;;;;;5.70;2.08;;;14.40;99.90;;;;;;5094423;28;20024;-70
2023/05/03 02:08:50;;;;;;;3.25;1.83;;;14.30;99.90;;;;;;5112373;28;20016;-70
2023/05/03 02:11:16;;;;;;;3.17;1.60;;;14.30;99.90;;;;;;5112340;28;20028;-71
2023/05/03 02:13:42;;;;;;;3.17;1.70;;;14.30;99.90;;;;;;5112544;28;20077;-70
2023/05/03 02:16:08;;;;;;;2.47;1.80;;;14.30;99.90;;;;;;5112244;28;20464;-71
2023/05/03 02:18:34;;;;;;;1.95;1.70;;;14.30;99.90;;;;;;5112444;28;20081;-71
2023/05/03 02:21:00;;;;;;;2.90;1.70;;;14.20;99.90;;;;;;5112161;28;20077;-70
2023/05/03 02:23:26;;;;;;;2.08;1.60;;;14.20;99.90;;;;;;5112144;28;20488;-71
2023/05/03 02:25:52;;;;;;;3.38;1.73;;;14.10;99.90;;;;;;5111975;28;20026;-70
2023/05/03 02:28:17;;;;;;;3.35;1.95;;;14.10;99.90;;;;;;5112595;28;20514;-70
2023/05/03 02:30:43;;;;;;;2.63;1.55;;;14.10;99.90;;;;;;5112175;28;20499;-70
2023/05/03 02:33:08;;;;;;;3.25;1.80;;;14.10;99.90;;;;;;5093845;28;20535;-70
2023/05/03 02:35:34;;;;;;;2.70;1.70;;;14.10;99.90;;;;;;5111712;28;20054;-70
2023/05/03 02:38:00;;;;;;;2.42;1.70;;;14.10;99.90;;;;;;5112384;28;20031;-70
2023/05/03 02:40:26;;;;;;;2.60;1.70;;;14.10;99.90;;;;;;5111391;28;20032;-71
2023/05/03 02:42:51;;;;;;;2.50;1.95;;;14.00;99.90;;;;;;5111827;28;20026;-70
2023/05/03 02:45:17;;;;;;;3.03;1.80;;;14.00;99.90;;;;;;5112140;28;20450;-70
2023/05/03 02:47:43;;;;;;;2.17;1.80;;;13.90;99.90;;;;;;5111820;28;20519;-71
2023/05/03 02:50:09;;;;;;;3.08;1.70;;;14.00;99.90;;;;;;5111428;28;20487;-70
2023/05/03 02:52:34;;;;;;;5.03;1.90;;;14.00;99.90;;;;;;5111847;28;20034;-69
2023/05/03 02:55:00;;;;;;;2.10;1.80;;;13.90;99.90;;;;;;5111708;28;20023;-70
2023/05/03 02:57:26;;;;;;;2.67;1.92;;;13.90;99.90;;;;;;5111844;28;20031;-69
2023/05/03 02:59:52;;;;;;;2.88;1.80;;;13.90;99.90;;;;;;5111997;28;20028;-70
2023/05/03 03:02:17;;;;;;;3.80;1.80;;;13.80;99.90;;;;;;5111763;28;20442;-70
2023/05/03 03:04:43;;;;;;;3.28;1.75;;;13.80;99.90;;;;;;5111462;28;20026;-71
2023/05/03 03:07:09;;;;;;;3.38;1.73;;;13.70;99.90;;;;;;5111625;28;20564;-71
2023/05/03 03:09:34;;;;;;;1.73;1.63;;;13.70;99.90;;;;;;5111869;28;20027;-70
2023/05/03 03:12:04;;;;;;;2.67;1.65;;;13.70;99.90;;;;;;5111426;28;20043;-70
2023/05/03 03:14:30;;;;;;;3.55;2.00;;;13.70;99.90;;;;;;5093386;28;20496;-70
2023/05/03 03:16:55;;;;;;;4.03;1.98;;;13.70;99.90;;;;;;5111766;28;20026;-70
2023/05/03 03:19:21;;;;;;;3.03;2.00;;;13.70;99.90;;;;;;5111326;28;20598;-71
2023/05/03 03:21:47;;;;;;;2.60;1.90;;;13.70;99.90;;;;;;5111585;28;20028;-69
2023/05/03 03:24:14;;;;;;;3.65;2.10;;;13.60;99.90;;;;;;5111487;28;20107;-70
2023/05/03 03:26:40;;;;;;;2.20;1.77;;;13.60;99.90;;;;;;5113628;28;20441;-70
2023/05/03 03:29:05;;;;;;;1.98;1.80;;;13.60;99.90;;;;;;5115789;28;20106;-71
2023/05/03 03:31:31;;;;;;;2.33;1.98;;;13.60;99.90;;;;;;5115646;28;20388;-70
2023/05/03 03:33:57;;;;;;;3.65;1.88;;;13.60;99.90;;;;;;5115376;28;20036;-71
2023/05/03 03:36:23;;;;;;;3.10;1.90;;;13.60;99.90;;;;;;5115581;28;20118;-71
2023/05/03 03:38:48;;;;;;;2.60;2.00;;;13.60;99.90;;;;;;5115500;28;20445;-70
2023/05/03 03:41:14;;;;;;;2.40;1.80;;;13.50;99.90;;;;;;5115632;28;20092;-70
2023/05/03 03:43:40;;;;;;;3.92;1.95;;;13.50;99.90;;;;;;5115740;28;20119;-70
2023/05/03 03:46:05;;;;;;;3.00;1.90;;;13.40;99.90;;;;;;5115410;28;20061;-70
2023/05/03 03:48:31;;;;;;;2.25;1.90;;;13.50;99.90;;;;;;5115021;28;20030;-70
2023/05/03 03:50:57;;;;;;;3.38;1.90;;;13.50;99.90;;;;;;5115666;28;20028;-70
2023/05/03 03:53:23;;;;;;;2.72;1.92;;;13.50;99.90;;;;;;5115382;28;20118;-69
2023/05/03 03:55:48;;;;;;;2.67;2.03;;;13.50;99.90;;;;;;5115235;28;20031;-70
2023/05/03 03:58:14;;;;;;;2.45;1.90;;;13.50;99.90;;;;;;5096809;28;20065;-71
2023/05/03 04:00:40;;;;;;;3.35;2.10;;;13.50;99.90;;;;;;5114774;28;20131;-70
2023/05/03 04:03:05;;;;;;;2.28;2.08;;;13.50;99.90;;;;;;5113673;28;20400;-70
2023/05/03 04:05:31;;;;;;;2.83;1.98;;;13.50;99.90;;;;;;5096609;28;20503;-71
2023/05/03 04:07:57;;;;;;;3.45;2.08;;;13.40;99.90;;;;;;5114768;28;20035;-70
2023/05/03 04:10:23;;;;;;;3.75;2.20;;;13.40;99.90;;;;;;5096889;28;20020;-70
2023/05/03 04:12:48;;;;;;;2.30;2.10;;;13.40;99.90;;;;;;5114704;28;20050;-69
2023/05/03 04:15:14;;;;;;;4.28;2.13;;;13.40;99.90;;;;;;5114977;28;20373;-70
2023/05/03 04:17:40;;;;;;;3.13;2.30;;;13.40;99.90;;;;;;5114423;28;20106;-70
2023/05/03 04:20:06;;;;;;;2.60;2.30;;;13.40;99.90;;;;;;5114836;28;20039;-71
2023/05/03 04:22:32;;;;;;;3.50;2.17;;;13.30;99.90;;;;;;5114832;28;20043;-71
2023/05/03 04:25:00;;;;;;;3.47;2.17;;;13.30;99.90;;;;;;5114580;28;20089;-70
2023/05/03 04:27:26;;;;;;;4.47;2.35;;;13.30;99.90;;;;;;5114534;28;20487;-70
2023/05/03 04:29:52;;;;;;;3.40;1.90;;;13.30;99.90;;;;;;5114842;28;20562;-70
2023/05/03 04:32:22;;;;;;;3.17;2.10;;;13.30;99.90;;;;;;5114093;28;20028;-71
2023/05/03 04:34:49;;;;;;;3.88;2.17;;;13.20;99.90;;;;;;5114437;28;20403;-71
2023/05/03 04:37:15;;;;;;;3.67;2.20;;;13.20;99.90;;;;;;5114417;28;20036;-70
2023/05/03 04:39:40;;;;;;;3.70;2.00;;;13.20;99.90;;;;;;5114068;28;20020;-70
2023/05/03 04:42:07;;;;;;;5.35;2.30;;;13.20;99.90;;;;;;5114448;28;20023;-68
2023/05/03 04:44:33;;;;;;;3.60;2.13;;;13.20;99.90;;;;;;5114355;28;20031;-70
2023/05/03 04:46:58;;;;;;;2.42;2.22;;;13.20;99.90;;;;;;5114223;28;20023;-70
2023/05/03 04:49:24;;;;;;;3.35;2.25;;;13.20;99.90;;;;;;5114221;28;20068;-69
2023/05/03 04:51:50;;;;;;;2.78;2.17;;;13.20;99.90;;;;;;5096084;28;20027;-71
2023/05/03 04:54:16;;;;;;;2.78;2.15;;;13.20;99.90;;;;;;5114180;28;20081;-70
2023/05/03 04:56:41;;;;;;;2.92;2.53;;;13.20;99.90;;;;;;5113925;28;20034;-70
2023/05/03 04:59:07;;;;;;;3.65;2.30;;;13.20;99.90;;;;;;5112868;28;20492;-70
2023/05/03 05:01:33;;;;;;;2.83;2.10;;;13.20;99.90;;;;;;5113159;28;20568;-71
2023/05/03 05:03:59;;;;;;;3.90;2.50;;;13.20;99.90;;;;;;5113632;28;20099;-71
2023/05/03 05:06:24;;;;;;;4.40;2.67;;;13.20;99.90;;;;;;5113834;28;20050;-70
2023/05/03 05:08:50;;;;;;;4.38;2.70;;;13.20;99.90;;;;;;5113573;28;20024;-70
2023/05/03 05:11:16;;;;;;;8.63;3.63;;;13.20;99.90;;;;;;5113486;28;20019;-70
2023/05/03 05:13:42;;;;;;;9.25;3.60;;;13.20;99.90;;;;;;5113835;28;20560;-70
2023/05/03 05:16:07;;;;;;;10.48;3.78;;;13.20;99.90;;;;;;5113370;28;20452;-70
2023/05/03 05:18:33;;;;;;;17.00;4.75;;;13.20;99.90;;;;;;5113157;28;20040;-70
2023/05/03 05:20:59;;;;;;;20.73;5.85;;;13.20;99.90;;;;;;5113831;28;20031;-71
2023/05/03 05:23:26;;;;;;;19.42;6.13;;;13.20;99.90;;;;;;5112397;28;20035;-70
2023/05/03 05:25:52;;;;;;;18.73;6.30;;;13.20;99.90;;;;;;5113724;28;20519;-70
2023/05/03 05:28:18;;;;;;;20.45;6.80;;;13.20;99.90;;;;;;5113231;28;20169;-70
2023/05/03 05:30:44;;;;;;;21.80;7.20;;;13.30;99.90;;;;;;5113342;28;20493;-70
2023/05/03 05:33:10;;;;;;;25.38;8.88;;;13.30;99.90;;;;;;5113284;28;20030;-70
2023/05/03 05:35:35;;;;;;;29.10;9.85;;;13.30;99.90;;;;;;5113409;28;20030;-70
2023/05/03 05:38:01;;;;;;;26.88;9.25;;;13.30;99.90;;;;;;5113343;28;20395;-71
2023/05/03 05:40:27;;;;;;;30.17;8.38;;;13.30;99.90;;;;;;5113144;28;20030;-70
2023/05/03 05:42:52;;;;;;;16.48;6.65;;;13.30;99.90;;;;;;5112760;28;20035;-71
2023/05/03 05:45:18;;;;;;;21.33;6.93;;;13.40;99.90;;;;;;5112543;28;20058;-70
2023/05/03 05:47:44;;;;;;;32.95;8.32;;;13.40;99.90;;;;;;5112802;28;20084;-71
2023/05/03 05:50:10;;;;;;;25.70;8.90;;;13.40;99.90;;;;;;5111716;28;20080;-70
2023/05/03 05:52:35;;;;;;;29.45;8.57;;;13.40;99.90;;;;;;5112731;28;20035;-71
2023/05/03 05:55:01;;;;;;;22.85;7.35;;;13.40;99.90;;;;;;5112987;28;20096;-71
2023/05/03 05:57:27;;;;;;;20.70;7.20;;;13.50;99.90;;;;;;5112567;28;20066;-71
2023/05/03 05:59:52;;;;;;;21.95;6.95;;;13.60;99.90;;;;;;5112323;28;20039;-70
2023/05/03 06:02:21;;;;;;;20.17;6.55;;;13.50;99.90;;;;;;5112616;28;20077;-70
2023/05/03 06:04:47;;;;;;;16.88;6.40;;;13.60;99.90;;;;;;5112788;28;20036;-70
2023/05/03 06:07:15;;;;;;;15.80;6.07;;;13.60;99.90;;;;;;5112680;28;20035;-70
2023/05/03 06:09:41;;;;;;;13.50;5.18;;;13.70;99.90;;;;;;5112261;28;20545;-71
2023/05/03 06:12:07;;;;;;;10.13;4.90;;;13.70;99.90;;;;;;5112036;28;20572;-70
2023/05/03 06:14:32;;;;;;;39.17;6.60;;;13.70;99.90;;;;;;5112123;28;20128;-71
2023/05/03 06:16:59;;;;;;;11.98;4.45;;;13.80;99.90;;;;;;5112237;28;20160;-71
2023/05/03 06:19:25;;;;;;;11.00;4.25;;;13.80;99.90;;;;;;5112540;28;20078;-71
2023/05/03 06:21:50;;;;;;;12.70;4.07;;;13.80;99.90;;;;;;5112229;28;20485;-71
2023/05/03 06:24:19;;;;;;;7.97;3.70;;;13.90;99.90;;;;;;5112434;28;20055;-71
2023/05/03 06:26:47;;;;;;;8.35;3.90;;;13.90;99.90;;;;;;5112140;28;20478;-70
2023/05/03 06:29:12;;;;;;;4.53;3.20;;;13.90;99.90;;;;;;5111991;28;20032;-72
2023/05/03 06:31:40;;;;;;;4.70;3.10;;;14.00;99.90;;;;;;5111813;28;20019;-72
2023/05/03 06:34:06;;;;;;;4.88;3.97;;;14.00;99.90;;;;;;5111950;28;20472;-71
2023/05/03 06:36:32;;;;;;;5.22;3.83;;;14.00;99.90;;;;;;5112105;28;20035;-71
2023/05/03 06:38:57;;;;;;;5.57;4.68;;;14.10;99.90;;;;;;5111790;28;20063;-72
2023/05/03 06:41:23;;;;;;;4.18;3.40;;;14.10;99.90;;;;;;5111854;28;20023;-72
2023/05/03 06:43:49;;;;;;;5.00;3.05;;;14.10;99.90;;;;;;5112111;28;20488;-71
2023/05/03 06:46:15;;;;;;;4.80;3.33;;;14.20;99.90;;;;;;5112031;28;20077;-72
2023/05/03 06:48:41;;;;;;;4.25;3.22;;;14.20;99.90;;;;;;5112029;28;20032;-72
2023/05/03 06:51:06;;;;;;;5.50;3.00;;;14.20;99.90;;;;;;5111961;28;20078;-72
2023/05/03 06:53:32;;;;;;;4.35;2.80;;;14.20;99.90;;;;;;5111641;28;20034;-71
2023/05/03 06:55:57;;;;;;;4.45;2.70;;;14.30;99.90;;;;;;5111556;28;20034;-72
2023/05/03 06:58:23;;;;;;;4.30;2.72;;;14.30;99.90;;;;;;5111680;28;20047;-71
2023/05/03 07:00:52;;;;;;;4.70;2.60;;;14.40;99.90;;;;;;5111383;28;20012;-72
2023/05/03 07:03:18;;;;;;;5.40;2.70;;;14.40;99.90;;;;;;5111526;28;20508;-72
2023/05/03 07:05:45;;;;;;;4.88;2.97;;;14.50;99.90;;;;;;5111420;28;20020;-72
2023/05/03 07:08:11;;;;;;;2.90;2.60;;;14.60;99.90;;;;;;5111300;28;20028;-72
2023/05/03 07:10:36;;;;;;;3.92;2.67;;;14.70;99.90;;;;;;5110585;28;20102;-72
2023/05/03 07:13:02;;;;;;;4.47;2.70;;;14.70;99.90;;;;;;5110554;28;20063;-72
2023/05/03 07:15:28;;;;;;;3.40;2.70;;;14.90;99.90;;;;;;5111218;28;20126;-72
2023/05/03 07:17:53;;;;;;;3.72;2.67;;;14.90;99.90;;;;;;5111326;28;20043;-72
2023/05/03 07:20:19;;;;;;;3.75;2.50;;;15.00;99.90;;;;;;5111617;28;20024;-72
2023/05/03 07:22:45;;;;;;;3.97;2.70;;;15.00;99.90;;;;;;5111553;28;20054;-72
2023/05/03 07:25:13;;;;;;;4.80;2.70;;;15.10;99.90;;;;;;5111390;28;20020;-71
2023/05/03 07:27:39;;;;;;;2.58;2.38;;;15.00;99.90;;;;;;5111467;28;20024;-72
2023/05/03 07:30:05;;;;;;;5.03;2.63;;;15.10;99.90;;;;;;5111871;28;20392;-72
2023/05/03 07:32:31;;;;;;;4.30;2.42;;;15.20;99.90;;;;;;5111557;28;20015;-72
2023/05/03 07:34:57;;;;;;;5.78;2.80;;;15.20;99.90;;;;;;5111389;28;20020;-72
2023/05/03 07:37:23;;;;;;;3.53;2.55;;;15.30;99.90;;;;;;5111588;28;20085;-71
2023/05/03 07:39:49;;;;;;;2.83;2.55;;;15.30;99.90;;;;;;5111441;28;20032;-70
2023/05/03 07:42:15;;;;;;;7.07;2.88;;;15.40;99.90;;;;;;5111503;28;20503;-71
2023/05/03 07:44:40;;;;;;;3.83;2.63;;;15.50;99.90;;;;;;5111529;28;20541;-71
2023/05/03 07:47:06;;;;;;;2.75;2.35;;;15.50;99.90;;;;;;5111328;28;20484;-70
2023/05/03 07:49:34;;;;;;;6.47;2.58;;;15.60;99.90;;;;;;5111651;28;20567;-71
2023/05/03 07:52:00;;;;;;;5.28;2.72;;;15.70;99.90;;;;;;5111460;28;20012;-70
2023/05/03 07:54:26;;;;;;;4.70;2.50;;;15.70;99.90;;;;;;5110909;28;20092;-71
2023/05/03 07:56:51;;;;;;;2.97;2.47;;;15.70;99.90;;;;;;5111118;28;20025;-69
2023/05/03 07:59:17;;;;;;;5.45;2.63;;;15.80;99.90;;;;;;5111564;28;20093;-70
2023/05/03 08:01:42;;;;;;;4.25;2.42;;;15.90;99.90;;;;;;5111000;28;20020;-70
2023/05/03 08:04:08;;;;;;;4.88;2.50;;;15.90;99.90;;;;;;5111269;28;20364;-70
2023/05/03 08:06:37;;;;;;;3.95;2.70;;;16.00;99.90;;;;;;5111561;28;20045;-69
2023/05/03 08:09:03;;;;;;;3.65;2.42;;;16.10;99.90;;;;;;5110608;28;20090;-71
2023/05/03 08:11:29;;;;;;;3.08;2.50;;;16.10;99.90;;;;;;5111012;28;20515;-70
2023/05/03 08:13:55;;;;;;;4.47;2.47;;;16.20;99.90;;;;;;5113153;28;20120;-70
2023/05/03 08:16:21;;;;;;;5.18;2.30;;;16.30;99.90;;;;;;5114398;28;20084;-71
2023/05/03 08:18:47;;;;;;;3.08;2.28;;;16.30;99.90;;;;;;5113960;28;20540;-70
2023/05/03 08:21:13;;;;;;;3.60;2.40;;;16.50;99.90;;;;;;5114312;28;20015;-71
2023/05/03 08:23:39;;;;;;;5.65;2.05;;;16.60;99.90;;;;;;5113883;28;20408;-70
2023/05/03 08:26:06;;;;;;;3.50;2.40;;;16.60;99.90;;;;;;5114774;28;20019;-71
2023/05/03 08:28:33;;;;;;;2.90;2.30;;;16.70;99.90;;;;;;5114734;28;20031;-71
2023/05/03 08:30:58;;;;;;;3.70;2.10;;;16.80;99.90;;;;;;5114570;28;20019;-72
2023/05/03 08:33:24;;;;;;;3.10;2.20;;;16.90;99.90;;;;;;5114684;28;20020;-71
2023/05/03 08:35:50;;;;;;;3.22;2.03;;;16.90;99.90;;;;;;5114438;28;20484;-71
2023/05/03 08:38:16;;;;;;;2.78;2.17;;;17.00;99.90;;;;;;5113974;28;20403;-71
2023/05/03 08:40:42;;;;;;;5.07;2.30;;;17.10;99.90;;;;;;5114955;28;20510;-71
2023/05/03 08:43:09;;;;;;;4.00;2.58;;;17.20;99.90;;;;;;5114290;28;20049;-71
2023/05/03 08:45:35;;;;;;;2.67;1.95;;;17.30;99.90;;;;;;5114327;28;20027;-71
2023/05/03 08:48:02;;;;;;;2.92;2.30;;;17.50;99.90;;;;;;5114185;28;20076;-71
2023/05/03 08:50:28;;;;;;;6.50;2.35;;;17.60;99.90;;;;;;5114412;28;20032;-71
2023/05/03 08:52:53;;;;;;;2.83;2.10;;;17.70;99.90;;;;;;5113821;28;20019;-71
2023/05/03 08:55:19;;;;;;;3.42;2.05;;;17.80;99.90;;;;;;5095902;28;20028;-71
2023/05/03 08:57:45;;;;;;;3.35;2.05;;;17.80;99.90;;;;;;5114290;28;20119;-71
2023/05/03 09:00:11;;;;;;;3.97;2.22;;;17.90;99.90;;;;;;5114029;28;20224;-71
2023/05/03 09:02:40;;;;;;;2.88;2.08;;;18.00;99.90;;;;;;5114101;28;20015;-71
2023/05/03 09:05:15;;;;;;;4.20;2.00;;;18.00;99.90;;;;;;5113904;28;20531;-71
2023/05/03 09:08:06;;;;;;;3.33;2.20;;;18.20;99.90;;;;;;5114004;28;20030;-71
2023/05/03 09:10:40;;;;;;;3.55;2.08;;;18.30;99.90;;;;;;5113802;28;20084;-71
2023/05/03 09:13:06;;;;;;;4.00;1.98;;;18.40;99.90;;;;;;5114102;28;20588;-71
2023/05/03 09:15:33;;;;;;;2.85;1.80;;;18.50;99.90;;;;;;5113920;28;20019;-71
2023/05/03 09:18:14;;;;;;;2.38;2.08;;;18.60;99.90;;;;;;5113606;28;20023;-71
2023/05/03 09:20:41;;;;;;;3.05;2.40;;;18.70;99.90;;;;;;5113597;28;20419;-72
2023/05/03 09:23:08;;;;;;;4.30;2.00;;;18.80;99.90;;;;;;5113236;28;20400;-72
2023/05/03 09:25:41;;;;;;;2.38;1.80;;;18.90;99.90;;;;;;5113635;28;20370;-72
2023/05/03 09:28:07;;;;;;;3.97;2.03;;;19.00;99.90;;;;;;5113944;28;20020;-71
2023/05/03 09:30:32;;;;;;;6.38;2.13;;;19.10;99.90;;;;;;5113401;28;20498;-72
2023/05/03 09:32:58;;;;;;;3.30;2.00;;;19.20;99.90;;;;;;5113365;28;20091;-72
2023/05/03 09:35:24;;;;;;;2.08;1.88;;;19.30;99.90;;;;;;5113092;28;20484;-72
2023/05/03 09:37:50;;;;;;;3.97;2.00;;;19.40;99.90;;;;;;5113235;28;20035;-72
2023/05/03 09:40:17;;;;;;;2.67;1.90;;;19.50;99.90;;;;;;5113727;28;20035;-71
2023/05/03 09:43:11;;;;;;;3.08;1.83;;;19.60;99.90;;;;;;5113247;28;20051;-71
2023/05/03 09:45:37;;;;;;;3.65;2.00;;;19.70;99.90;;;;;;5113151;28;20031;-71
2023/05/03 09:48:04;;;;;;;2.58;1.83;;;19.90;99.90;;;;;;5112985;28;20106;-72
2023/05/03 09:50:35;;;;;;;6.25;1.90;;;20.00;99.90;;;;;;5112732;28;20057;-72
2023/05/03 09:53:05;;;;;;;2.22;1.73;;;20.10;99.90;;;;;;5112962;28;20028;-72
2023/05/03 09:55:38;;;;;;;4.75;1.80;;;20.20;99.90;;;;;;5112997;28;20020;-72
2023/05/03 09:58:05;;;;;;;3.05;1.80;;;20.30;99.90;;;;;;5113293;28;20042;-72
2023/05/03 10:00:39;;;;;;;3.63;1.73;;;20.40;99.90;;;;;;5112843;28;20038;-72
2023/05/03 10:03:09;;;;;;;2.88;1.90;;;20.40;99.90;;;;;;5112671;28;20031;-71
2023/05/03 10:05:54;;;;;;;5.50;1.80;;;20.40;99.90;;;;;;5112465;28;20028;-71
2023/05/03 10:08:36;;;;;;;2.28;2.08;;;20.40;99.90;;;;;;5112595;28;20391;-72
2023/05/03 10:11:03;;;;;;;3.35;1.80;;;20.50;99.90;;;;;;5113072;28;20399;-72
2023/05/03 10:13:30;;;;;;;2.20;2.00;;;20.70;99.90;;;;;;5112478;28;20047;-72
2023/05/03 10:16:05;;;;;;;2.45;2.25;;;20.80;99.90;;;;;;5112723;28;20431;-72
2023/05/03 10:18:32;;;;;;;3.55;1.88;;;21.00;99.90;;;;;;5112356;28;20031;-71
2023/05/03 10:21:05;;;;;;;2.60;2.03;;;21.10;99.90;;;;;;5112082;28;20027;-72
2023/05/03 10:23:31;;;;;;;;;;;21.10;99.90;;;;;;5112748;28;20047;-72
2023/05/03 10:26:06;;;;;;;4.05;1.60;;;21.20;99.90;;;;;;5112345;28;19950;-72
2023/05/03 10:28:36;;;;;;;2.92;1.90;;;21.40;99.90;;;;;;5112338;28;20038;-72
2023/05/03 10:31:02;;;;;;;3.58;1.83;;;21.50;99.90;;;;;;5094242;28;20023;-73
2023/05/03 10:33:33;;;;;;;3.72;1.90;;;21.60;99.90;;;;;;5111871;28;20044;-72
2023/05/03 10:36:05;;;;;;;3.45;1.95;;;21.70;99.90;;;;;;5111745;27;20019;-72
2023/05/03 10:38:31;;;;;;;3.40;2.30;;;21.80;99.90;;;;;;5112048;28;20032;-72
2023/05/03 10:40:58;;;;;;;2.25;2.03;;;21.80;99.90;;;;;;5111899;28;20030;-73
2023/05/03 10:43:33;;;;;;;2.33;1.80;;;21.90;99.90;;;;;;5112174;28;20491;-72
2023/05/03 10:46:04;;;;;;;3.65;2.40;;;22.00;99.90;;;;;;5094080;28;20085;-72
2023/05/03 10:48:30;;;;;;;2.28;1.80;;;22.20;99.90;;;;;;5111633;28;20031;-72
2023/05/03 10:51:17;;;;;;;2.30;1.98;;;22.30;99.90;;;;;;5111862;28;20032;-72
2023/05/03 10:53:43;;;;;;;2.72;2.10;;;22.30;99.90;;;;;;5111753;28;20075;-72
2023/05/03 10:56:14;;;;;;;3.65;1.98;;;22.50;99.90;;;;;;5111888;28;20031;-73
2023/05/03 10:58:45;;;;;;;2.35;1.95;;;22.50;99.90;;;;;;5112432;28;20050;-73
2023/05/03 11:01:16;;;;;;;2.05;1.70;;;22.60;99.90;;;;;;5111463;28;20373;-72
2023/05/03 11:04:05;;;;;;;2.67;2.00;;;22.80;99.90;;;;;;5111429;28;20092;-73
2023/05/03 11:06:39;;;;;;;2.95;1.90;;;22.80;99.90;;;;;;5111758;28;20028;-73
2023/05/03 11:09:07;;;;;;;2.70;1.85;;;23.00;99.90;;;;;;5111707;28;20038;-73
2023/05/03 11:11:35;;;;;;;1.80;1.70;;;23.10;99.90;;;;;;5111459;28;20043;-73
2023/05/03 11:14:02;;;;;;;2.38;1.70;;;23.20;99.90;;;;;;5112110;28;20031;-73
2023/05/03 11:16:28;;;;;;;3.33;2.05;;;23.30;99.90;;;;;;5111670;28;20522;-74
2023/05/03 11:18:55;;;;;;;2.83;1.80;;;23.40;99.90;;;;;;5111225;28;20512;-73
2023/05/03 11:21:21;;;;;;;3.58;1.70;;;23.40;99.90;;;;;;5111608;28;20070;-73
2023/05/03 11:23:47;;;;;;;2.55;1.80;;;23.50;99.90;;;;;;5111406;28;20053;-73
2023/05/03 11:26:13;;;;;;;2.40;1.85;;;23.60;99.90;;;;;;5111628;28;20032;-73
2023/05/03 11:28:42;;;;;;;2.53;1.75;;;23.80;99.90;;;;;;5111946;28;20016;-72
2023/05/03 11:31:09;;;;;;;1.95;1.67;;;23.80;99.90;;;;;;5111311;28;20031;-73
2023/05/03 11:33:39;;;;;;;3.67;1.88;;;23.80;99.90;;;;;;5111025;28;20110;-72
2023/05/03 11:36:08;;;;;;;1.70;1.60;;;23.80;99.90;;;;;;5111932;28;20380;-73
2023/05/03 11:38:35;;;;;;;4.18;1.90;;;23.90;99.90;;;;;;5111472;28;20040;-71
2023/05/03 11:41:13;;;;;;;2.33;1.77;;;24.00;99.90;;;;;;5111166;28;20441;-73
2023/05/03 11:43:46;;;;;;;2.33;2.03;;;24.00;99.90;;;;;;5111288;28;20035;-73
2023/05/03 11:46:23;;;;;;;1.92;1.80;;;24.20;99.90;;;;;;5110841;28;20057;-73
2023/05/03 11:48:49;;;;;;;1.98;1.70;;;24.20;99.90;;;;;;5113402;28;20107;-73
2023/05/03 11:51:24;;;;;;;2.03;1.80;;;24.30;99.90;;;;;;5115235;28;20176;-73
2023/05/03 11:53:50;;;;;;;2.88;1.80;;;24.40;99.90;;;;;;5115466;28;20068;-72
2023/05/03 11:56:19;;;;;;;3.47;2.10;;;24.60;99.90;;;;;;5115284;28;20112;-73
2023/05/03 11:58:52;;;;;;;2.63;1.77;;;24.80;99.90;;;;;;5097318;28;20035;-73
2023/05/03 12:01:22;;;;;;;2.05;1.85;;;24.90;99.90;;;;;;5114587;28;20034;-73
2023/05/03 12:03:55;;;;;;;1.80;1.70;;;25.00;99.90;;;;;;5115206;28;20116;-74
2023/05/03 12:06:22;;;;;;;2.75;1.83;;;25.10;99.90;;;;;;5115084;28;20393;-73
2023/05/03 12:08:48;;;;;;;3.13;1.70;;;25.20;99.90;;;;;;5115367;28;20042;-74
2023/05/03 12:11:13;;;;;;;2.97;1.70;;;25.40;99.90;;;;;;5114773;28;20020;-73
2023/05/03 12:13:40;;;;;;;1.63;1.52;;;25.50;99.90;;;;;;5115167;28;20507;-73
2023/05/03 12:16:07;;;;;;;2.03;1.70;;;25.60;99.90;;;;;;5114698;28;20057;-73
2023/05/03 12:18:54;;;;;;;1.98;1.70;;;25.70;99.90;;;;;;5114846;27;20400;-73
2023/05/03 12:21:21;;;;;;;3.17;1.80;;;25.90;99.90;;;;;;5114915;28;20031;-73
2023/05/03 12:23:51;;;;;;;3.10;1.60;;;26.10;99.90;;;;;;5115323;28;20049;-73
2023/05/03 12:26:18;;;;;;;2.05;1.73;;;26.20;99.90;;;;;;5114515;28;20012;-73
2023/05/03 12:28:46;;;;;;;2.55;1.52;;;26.30;99.90;;;;;;5114621;28;20034;-73
2023/05/03 12:31:13;;;;;;;2.60;1.80;;;26.40;99.90;;;;;;5114487;28;20027;-73
2023/05/03 12:33:39;;;;;;;3.10;2.00;;;26.50;99.90;;;;;;5114667;28;20484;-74
2023/05/03 12:36:06;;;;;;;2.97;1.83;;;26.60;99.90;;;;;;5114628;28;20037;-74
2023/05/03 12:38:32;;;;;;;3.13;1.70;;;26.70;99.90;;;;;;5114854;28;20077;-73
2023/05/03 12:40:58;;;;;;;2.53;1.58;;;26.80;99.90;;;;;;5114593;28;20502;-73
2023/05/03 12:43:24;;;;;;;2.47;1.67;;;27.00;99.90;;;;;;5114438;28;20081;-74
2023/05/03 12:45:50;;;;;;;3.75;1.70;;;27.10;99.90;;;;;;5114095;28;20019;-74
2023/05/03 12:48:16;;;;;;;1.80;1.70;;;27.20;99.90;;;;;;5114448;28;20391;-74